Time;durP1;ratioP1;P1;durP2;ratioP2;P2;SDS_P1;SDS_P2;PMS_P1;PMS_P2;Temp;Humidity;BMP_temperature;BMP_pressure;BME280_temperature;BME280_humidity;BME280_pressure;Samples;Min_cycle;Max_cycle;Signal;HPM_P1;HPM_P2
2023/05/17 00:00:15;;;;;;;1.48;0.65;;;10.40;99.90;;;;;;4960806;28;20202;-62
2023/05/17 00:02:45;;;;;;;1.38;0.73;;;10.40;99.90;;;;;;4952857;28;20234;-63
2023/05/17 00:05:12;;;;;;;1.08;0.77;;;10.40;99.90;;;;;;4953442;28;20775;-63
2023/05/17 00:07:40;;;;;;;0.70;0.60;;;10.50;99.90;;;;;;4952924;28;20214;-63
2023/05/17 00:10:09;;;;;;;0.98;0.63;;;10.50;99.90;;;;;;4953353;28;20251;-63
2023/05/17 00:12:37;;;;;;;0.60;0.50;;;10.30;99.90;;;;;;4952229;28;20593;-63
2023/05/17 00:15:06;;;;;;;2.08;0.70;;;10.40;99.90;;;;;;4952652;28;20222;-63
2023/05/17 00:17:36;;;;;;;0.60;0.50;;;10.40;99.90;;;;;;4951775;28;20298;-63
2023/05/17 00:20:06;;;;;;;0.82;0.60;;;10.40;99.90;;;;;;4953476;28;20643;-64
2023/05/17 00:22:34;;;;;;;0.70;0.60;;;10.40;99.90;;;;;;4952648;28;20282;-64
2023/05/17 00:25:02;;;;;;;0.85;0.55;;;10.40;99.90;;;;;;4935541;29;20210;-63
2023/05/17 00:27:30;;;;;;;0.90;0.50;;;10.30;99.90;;;;;;4953220;28;20256;-63
2023/05/17 00:29:58;;;;;;;0.90;0.50;;;10.30;99.90;;;;;;4953061;28;20204;-63
2023/05/17 00:32:26;;;;;;;1.40;1.02;;;10.40;99.90;;;;;;4952349;28;20714;-64
2023/05/17 00:34:55;;;;;;;1.27;0.70;;;10.50;99.90;;;;;;4952821;28;20249;-63
2023/05/17 00:37:24;;;;;;;1.30;0.80;;;10.50;99.90;;;;;;4951816;28;20219;-64
2023/05/17 00:39:52;;;;;;;0.90;0.55;;;10.40;99.90;;;;;;4947346;28;20636;-63
2023/05/17 00:42:20;;;;;;;0.70;0.60;;;10.40;99.90;;;;;;4947941;28;20232;-63
2023/05/17 00:44:48;;;;;;;0.60;0.40;;;10.30;99.90;;;;;;4946780;28;20203;-63
2023/05/17 00:47:16;;;;;;;0.70;0.50;;;10.30;99.90;;;;;;4952767;28;20698;-62
2023/05/17 00:49:45;;;;;;;0.63;0.50;;;10.30;99.90;;;;;;4952075;28;20207;-62
2023/05/17 00:52:15;;;;;;;0.60;0.50;;;10.30;99.90;;;;;;5054081;23;20239;31
2023/05/17 00:54:45;;;;;;;1.00;0.70;;;10.10;99.90;;;;;;4948965;29;20267;-70
2023/05/17 00:57:13;;;;;;;0.90;0.60;;;10.10;99.90;;;;;;4952053;29;20211;-70
2023/05/17 00:59:43;;;;;;;0.88;0.60;;;10.00;99.90;;;;;;4952355;29;20211;-70
2023/05/17 01:02:12;;;;;;;0.90;0.70;;;10.00;99.90;;;;;;4953977;28;20214;-69
2023/05/17 01:04:41;;;;;;;0.80;0.68;;;10.00;99.90;;;;;;4961704;28;20625;-70
2023/05/17 01:07:09;;;;;;;0.80;0.60;;;9.90;99.90;;;;;;4965338;28;20314;-71
2023/05/17 01:09:38;;;;;;;0.70;0.60;;;9.90;99.90;;;;;;4961901;28;20207;-71
2023/05/17 01:12:15;;;;;;;0.60;0.50;;;9.90;99.90;;;;;;4971680;28;20245;-72
2023/05/17 01:14:51;;;;;;;1.02;0.70;;;9.90;99.90;;;;;;4971196;28;20226;-72
2023/05/17 01:17:28;;;;;;;1.13;0.80;;;10.00;99.90;;;;;;4971874;28;20214;-71
2023/05/17 01:20:11;;;;;;;1.00;0.60;;;10.10;99.90;;;;;;4964660;28;20289;-70
2023/05/17 01:22:45;;;;;;;2.15;1.95;;;10.00;99.90;;;;;;4971164;28;20605;-69
2023/05/17 01:25:27;;;;;;;1.13;0.77;;;9.90;99.90;;;;;;4971650;28;20198;-69
2023/05/17 01:28:00;;;;;;;1.25;0.73;;;9.90;99.90;;;;;;4964486;28;20202;-69
2023/05/17 01:30:29;;;;;;;0.80;0.57;;;9.90;99.90;;;;;;4971173;28;20203;-68
2023/05/17 01:32:58;;;;;;;0.73;0.60;;;9.80;99.90;;;;;;4971260;28;20226;-69
2023/05/17 01:35:27;;;;;;;2.40;0.90;;;9.80;99.90;;;;;;4971265;28;20305;-69
2023/05/17 01:37:55;;;;;;;1.50;0.70;;;9.70;99.90;;;;;;4971424;28;20541;-70
2023/05/17 01:40:24;;;;;;;1.45;0.85;;;9.60;99.90;;;;;;4971543;28;20217;-70
2023/05/17 01:43:02;;;;;;;1.15;0.50;;;9.70;99.90;;;;;;4971188;28;20309;-70
2023/05/17 01:45:34;;;;;;;1.58;0.75;;;9.80;99.90;;;;;;4969757;28;20202;-71
2023/05/17 01:48:19;;;;;;;1.00;0.80;;;9.80;99.90;;;;;;4965545;28;20226;-70
2023/05/17 01:50:49;;;;;;;0.70;0.60;;;9.90;99.90;;;;;;4965228;28;20743;-70
2023/05/17 01:53:25;;;;;;;1.30;0.75;;;9.90;99.90;;;;;;4963997;28;20701;-70
2023/05/17 01:55:56;;;;;;;0.93;0.60;;;9.90;99.90;;;;;;4970617;28;20277;-70
2023/05/17 01:58:26;;;;;;;1.40;0.90;;;9.80;99.90;;;;;;4968140;28;20684;-70
2023/05/17 02:00:56;;;;;;;1.27;0.98;;;9.90;99.90;;;;;;4961508;28;20222;-71
2023/05/17 02:03:24;;;;;;;1.65;1.02;;;9.90;99.90;;;;;;4967808;28;20230;-70
2023/05/17 02:05:52;;;;;;;0.70;0.70;;;10.10;99.90;;;;;;4968350;28;20226;-70
2023/05/17 02:08:20;;;;;;;1.45;1.10;;;9.90;99.90;;;;;;4967326;28;20203;-70
2023/05/17 02:10:48;;;;;;;1.00;0.65;;;9.90;99.90;;;;;;4960956;28;20214;-70
2023/05/17 02:13:16;;;;;;;1.35;0.50;;;9.70;99.90;;;;;;4967175;28;20238;-70
2023/05/17 02:15:45;;;;;;;0.80;0.63;;;9.70;99.90;;;;;;4968739;28;20233;-70
2023/05/17 02:18:13;;;;;;;5.35;2.30;;;9.70;99.90;;;;;;4961573;28;20272;-71
2023/05/17 02:20:41;;;;;;;0.82;0.60;;;9.60;99.90;;;;;;4970764;28;20329;-70
2023/05/17 02:23:09;;;;;;;0.70;0.60;;;9.60;99.90;;;;;;4961268;28;20618;-70
2023/05/17 02:25:37;;;;;;;1.35;1.13;;;9.60;99.90;;;;;;4963074;28;20198;-70
2023/05/17 02:28:06;;;;;;;0.73;0.65;;;9.50;99.90;;;;;;4970451;28;20281;-70
2023/05/17 02:30:34;;;;;;;2.15;0.90;;;9.50;99.90;;;;;;4969028;28;20688;-71
2023/05/17 02:33:03;;;;;;;1.13;0.70;;;9.40;99.90;;;;;;4969282;28;20223;-71
2023/05/17 02:35:31;;;;;;;0.70;0.70;;;9.30;99.90;;;;;;4972555;28;20227;-71
2023/05/17 02:38:00;;;;;;;0.73;0.65;;;9.20;99.90;;;;;;4970782;28;20575;-71
2023/05/17 02:40:27;;;;;;;0.85;0.75;;;9.10;99.90;;;;;;4969978;28;20217;-71
2023/05/17 02:42:55;;;;;;;0.80;0.55;;;9.00;99.90;;;;;;4969159;28;20705;-72
2023/05/17 02:45:23;;;;;;;1.27;0.90;;;8.90;99.90;;;;;;4971237;28;20202;-71
2023/05/17 02:47:51;;;;;;;0.60;0.45;;;9.00;99.90;;;;;;4969684;28;20285;-71
2023/05/17 02:50:21;;;;;;;1.13;0.50;;;8.90;99.90;;;;;;4970936;28;20211;-71
2023/05/17 02:52:49;;;;;;;1.05;0.82;;;9.10;99.90;;;;;;4971833;28;20242;-71
2023/05/17 02:55:17;;;;;;;1.05;0.80;;;9.10;99.90;;;;;;4973341;28;20221;-71
2023/05/17 02:57:46;;;;;;;0.70;0.60;;;9.10;99.90;;;;;;4953113;28;20203;-71
2023/05/17 03:00:15;;;;;;;0.80;0.60;;;9.10;99.90;;;;;;4971598;28;20234;-71
2023/05/17 03:02:43;;;;;;;3.50;1.50;;;9.10;99.90;;;;;;4970695;28;20242;-71
2023/05/17 03:05:11;;;;;;;1.25;0.80;;;9.10;99.90;;;;;;4967534;28;20203;-72
2023/05/17 03:07:40;;;;;;;1.23;0.52;;;9.10;99.90;;;;;;4964136;28;20214;-71
2023/05/17 03:10:09;;;;;;;0.80;0.70;;;9.00;99.90;;;;;;4973027;28;20199;-71
2023/05/17 03:12:37;;;;;;;0.60;0.40;;;9.00;99.90;;;;;;4972287;28;20227;-71
2023/05/17 03:15:06;;;;;;;1.15;0.70;;;9.10;99.90;;;;;;4961167;28;20199;-71
2023/05/17 03:17:34;;;;;;;2.38;1.00;;;8.90;99.90;;;;;;4963849;28;20211;-71
2023/05/17 03:20:03;;;;;;;0.80;0.60;;;8.70;99.90;;;;;;4971837;28;20289;-71
2023/05/17 03:22:31;;;;;;;0.70;0.60;;;8.60;99.90;;;;;;4965399;28;20222;-71
2023/05/17 03:25:00;;;;;;;1.90;0.90;;;8.60;99.90;;;;;;4962851;28;20228;-71
2023/05/17 03:27:29;;;;;;;1.02;0.85;;;8.70;99.90;;;;;;4970819;28;20453;-71
2023/05/17 03:29:57;;;;;;;0.82;0.60;;;8.60;99.90;;;;;;4963374;28;20202;-71
2023/05/17 03:32:25;;;;;;;0.60;0.40;;;8.50;99.90;;;;;;4969360;28;20239;-70
2023/05/17 03:34:53;;;;;;;0.80;0.80;;;8.60;99.90;;;;;;4967872;28;20215;-69
2023/05/17 03:37:21;;;;;;;0.70;0.57;;;8.50;99.90;;;;;;4965366;28;20218;-70
2023/05/17 03:39:49;;;;;;;0.60;0.50;;;8.60;99.90;;;;;;4970035;28;20253;-71
2023/05/17 03:42:19;;;;;;;0.82;0.70;;;8.70;99.90;;;;;;4964231;28;20207;-70
2023/05/17 03:44:47;;;;;;;0.90;0.57;;;8.80;99.90;;;;;;4968841;28;20214;-71
2023/05/17 03:47:15;;;;;;;2.17;0.90;;;8.80;99.90;;;;;;4962386;28;20203;-70
2023/05/17 03:49:43;;;;;;;0.80;0.60;;;8.90;99.90;;;;;;4971090;28;20307;-70
2023/05/17 03:52:11;;;;;;;1.10;0.80;;;9.00;99.90;;;;;;4972992;28;20209;-71
2023/05/17 03:54:39;;;;;;;0.82;0.60;;;9.00;99.90;;;;;;4972516;28;20765;-71
2023/05/17 03:57:07;;;;;;;0.88;0.68;;;9.10;99.90;;;;;;4964073;28;20228;-71
2023/05/17 03:59:36;;;;;;;0.80;0.60;;;9.20;99.90;;;;;;4963807;28;20261;-71
2023/05/17 04:02:04;;;;;;;0.75;0.55;;;9.30;99.90;;;;;;4971231;28;20630;-71
2023/05/17 04:04:32;;;;;;;0.85;0.75;;;9.30;99.90;;;;;;4971369;28;20564;-71
2023/05/17 04:07:01;;;;;;;0.80;0.60;;;9.40;99.90;;;;;;4968645;28;20277;-70
2023/05/17 04:09:31;;;;;;;0.60;0.45;;;9.30;99.90;;;;;;4967474;28;20672;-71
2023/05/17 04:11:58;;;;;;;0.70;0.60;;;9.20;99.90;;;;;;4961912;28;20688;-71
2023/05/17 04:14:26;;;;;;;0.80;0.73;;;9.00;99.90;;;;;;4969537;28;20651;-71
2023/05/17 04:16:56;;;;;;;0.70;0.70;;;9.00;99.90;;;;;;4970341;28;20280;-71
2023/05/17 04:19:23;;;;;;;0.70;0.60;;;8.90;99.90;;;;;;4968197;28;20207;-70
2023/05/17 04:21:52;;;;;;;0.82;0.50;;;8.80;99.90;;;;;;4968300;28;20210;-68
2023/05/17 04:24:20;;;;;;;1.15;0.60;;;8.80;99.90;;;;;;4964641;28;20747;-71
2023/05/17 04:26:47;;;;;;;1.00;0.85;;;9.00;99.90;;;;;;4967914;28;20218;-70
2023/05/17 04:29:15;;;;;;;0.70;0.63;;;9.20;99.90;;;;;;4970374;28;20712;-71
2023/05/17 04:31:45;;;;;;;0.80;0.70;;;9.40;99.90;;;;;;4968598;28;20210;-72
2023/05/17 04:34:15;;;;;;;0.70;0.57;;;9.50;99.90;;;;;;4967626;28;20245;-72
2023/05/17 04:36:43;;;;;;;0.80;0.80;;;9.60;99.90;;;;;;4968338;28;20330;-72
2023/05/17 04:39:10;;;;;;;0.70;0.57;;;9.70;99.90;;;;;;4968915;28;20254;-73
2023/05/17 04:41:38;;;;;;;1.00;0.88;;;9.80;99.90;;;;;;4968537;28;20210;-72
2023/05/17 04:44:07;;;;;;;4.60;1.05;;;9.70;99.90;;;;;;4967143;28;20784;-73
2023/05/17 04:46:35;;;;;;;0.60;0.52;;;9.70;99.90;;;;;;4969682;28;20222;-73
2023/05/17 04:49:03;;;;;;;1.15;0.93;;;9.40;99.90;;;;;;4966254;28;20286;-73
2023/05/17 04:51:33;;;;;;;0.70;0.60;;;9.30;99.90;;;;;;4970459;28;20265;-72
2023/05/17 04:54:02;;;;;;;2.65;0.70;;;9.40;99.90;;;;;;4969677;28;20253;-73
2023/05/17 04:56:30;;;;;;;0.98;0.50;;;9.30;99.90;;;;;;4963328;28;20235;-72
2023/05/17 04:58:57;;;;;;;2.25;1.27;;;9.30;99.90;;;;;;4967757;28;20674;-72
2023/05/17 05:01:25;;;;;;;2.45;0.80;;;9.40;99.90;;;;;;4969210;28;20582;-73
2023/05/17 05:03:53;;;;;;;1.52;0.95;;;9.30;99.90;;;;;;4969696;28;20230;-71
2023/05/17 05:06:21;;;;;;;0.90;0.65;;;9.30;99.90;;;;;;4964064;28;20203;-72
2023/05/17 05:08:51;;;;;;;3.95;0.95;;;9.20;99.90;;;;;;4968503;28;20781;-72
2023/05/17 05:11:19;;;;;;;0.90;0.70;;;9.30;99.90;;;;;;4968994;28;20207;-72
2023/05/17 05:13:47;;;;;;;0.80;0.60;;;9.40;99.90;;;;;;4968138;28;20362;-73
2023/05/17 05:16:15;;;;;;;0.70;0.50;;;9.60;99.90;;;;;;4967591;28;20203;-72
2023/05/17 05:18:43;;;;;;;1.38;0.77;;;9.70;99.90;;;;;;4957861;28;20269;-72
2023/05/17 05:21:11;;;;;;;0.57;0.40;;;9.80;99.90;;;;;;4965487;28;20207;-72
2023/05/17 05:23:39;;;;;;;1.10;0.63;;;9.90;99.90;;;;;;4965184;28;20230;-73
2023/05/17 05:26:08;;;;;;;0.82;0.77;;;10.10;99.90;;;;;;4964513;28;20580;-73
2023/05/17 05:28:36;;;;;;;1.00;0.70;;;10.00;99.90;;;;;;4968169;28;20217;-69
2023/05/17 05:31:05;;;;;;;1.13;0.60;;;10.10;99.90;;;;;;4968738;28;20257;-71
2023/05/17 05:33:33;;;;;;;1.42;1.33;;;9.90;99.90;;;;;;4969264;28;20725;-70
2023/05/17 05:36:01;;;;;;;2.00;1.00;;;9.90;99.90;;;;;;4966179;28;20210;-71
2023/05/17 05:38:29;;;;;;;0.80;0.50;;;9.90;99.90;;;;;;4968424;28;20897;-71
2023/05/17 05:40:57;;;;;;;2.00;0.77;;;10.00;99.90;;;;;;4971322;28;20218;-70
2023/05/17 05:43:26;;;;;;;3.33;0.90;;;9.90;99.90;;;;;;4971442;28;20237;-69
2023/05/17 05:45:54;;;;;;;1.13;0.55;;;9.90;99.90;;;;;;4974530;28;20210;-71
2023/05/17 05:48:22;;;;;;;1.80;0.77;;;10.00;99.90;;;;;;4975276;28;20198;-71
2023/05/17 05:50:50;;;;;;;1.33;0.75;;;10.00;99.90;;;;;;4975002;28;20211;-70
2023/05/17 05:53:18;;;;;;;0.80;0.70;;;10.10;99.90;;;;;;4966877;28;20249;-70
2023/05/17 05:55:48;;;;;;;0.85;0.50;;;10.20;99.90;;;;;;4974870;28;20261;-72
2023/05/17 05:58:18;;;;;;;0.85;0.80;;;10.30;99.90;;;;;;4975811;28;20318;-68
2023/05/17 06:00:47;;;;;;;0.95;0.73;;;10.60;99.90;;;;;;4975011;28;20206;-70
2023/05/17 06:03:15;;;;;;;0.77;0.50;;;10.70;99.90;;;;;;4977143;28;20245;-70
2023/05/17 06:05:43;;;;;;;1.70;1.05;;;11.10;99.90;;;;;;4974557;28;20233;-70
2023/05/17 06:08:11;;;;;;;0.68;0.50;;;11.30;99.90;;;;;;4971458;28;20662;-69
2023/05/17 06:10:39;;;;;;;0.60;0.45;;;11.40;99.90;;;;;;4967259;28;20678;-70
2023/05/17 06:13:07;;;;;;;0.85;0.65;;;11.50;99.90;;;;;;4965704;28;20227;-70
2023/05/17 06:15:35;;;;;;;0.88;0.70;;;11.60;99.90;;;;;;4967296;28;20211;-69
2023/05/17 06:18:05;;;;;;;0.60;0.50;;;11.60;99.90;;;;;;4966196;28;20226;-71
2023/05/17 06:20:33;;;;;;;0.70;0.50;;;11.80;99.90;;;;;;4966981;28;20281;-70
2023/05/17 06:23:03;;;;;;;1.08;0.60;;;12.00;99.90;;;;;;4964101;28;20241;-71
2023/05/17 06:25:32;;;;;;;0.70;0.50;;;11.90;99.90;;;;;;4963604;28;20207;-69
2023/05/17 06:28:01;;;;;;;0.75;0.68;;;12.10;99.90;;;;;;4965446;28;20219;-70
2023/05/17 06:30:29;;;;;;;0.60;0.50;;;11.90;99.90;;;;;;4968392;28;20218;-70
2023/05/17 06:32:58;;;;;;;0.70;0.70;;;11.90;99.90;;;;;;4972598;28;20222;-70
2023/05/17 06:35:27;;;;;;;0.70;0.60;;;11.80;99.90;;;;;;4966538;28;20199;-70
2023/05/17 06:37:59;;;;;;;1.15;0.82;;;11.70;99.90;;;;;;4964234;28;20705;-71
2023/05/17 06:40:27;;;;;;;0.80;0.60;;;11.70;99.90;;;;;;4963184;28;20562;-70
2023/05/17 06:42:55;;;;;;;0.60;0.50;;;11.80;99.90;;;;;;4971902;28;20717;-70
2023/05/17 06:45:25;;;;;;;1.15;0.65;;;11.70;99.90;;;;;;4956869;28;20203;-70
2023/05/17 06:47:53;;;;;;;0.60;0.60;;;11.60;99.90;;;;;;4970822;28;20237;-71
2023/05/17 06:50:25;;;;;;;1.25;0.80;;;11.70;99.90;;;;;;4963275;28;20219;-72
2023/05/17 06:52:55;;;;;;;0.90;0.85;;;11.70;99.90;;;;;;4993821;23;20244;-64
2023/05/17 06:55:23;;;;;;;0.80;0.70;;;11.80;99.90;;;;;;4992361;28;20214;-63
2023/05/17 06:57:51;;;;;;;1.00;0.70;;;11.80;99.90;;;;;;4993199;28;20697;-63
2023/05/17 07:00:20;;;;;;;1.25;0.70;;;11.90;99.90;;;;;;4993440;28;20198;-64
2023/05/17 07:02:48;;;;;;;0.70;0.60;;;12.10;99.90;;;;;;4992765;28;20296;-63
2023/05/17 07:05:16;;;;;;;0.68;0.55;;;12.20;99.90;;;;;;4993331;28;20210;-65
2023/05/17 07:07:44;;;;;;;2.35;1.05;;;12.30;99.90;;;;;;4993375;28;20205;-64
2023/05/17 07:10:14;;;;;;;1.92;0.60;;;12.50;99.90;;;;;;4985669;28;20280;-61
2023/05/17 07:12:42;;;;;;;1.35;0.60;;;12.80;99.90;;;;;;4993089;28;20647;-61
2023/05/17 07:15:11;;;;;;;0.60;0.40;;;13.10;99.90;;;;;;4992839;28;20221;-64
2023/05/17 07:17:39;;;;;;;0.60;0.40;;;13.30;99.90;;;;;;4992646;28;20217;-64
2023/05/17 07:20:08;;;;;;;1.33;0.45;;;13.30;99.90;;;;;;4992942;28;20312;-63
2023/05/17 07:22:37;;;;;;;2.03;1.05;;;13.30;99.90;;;;;;4992838;28;20292;-64
2023/05/17 07:25:06;;;;;;;0.95;0.73;;;13.30;99.90;;;;;;4992814;28;20209;-61
2023/05/17 07:27:35;;;;;;;0.60;0.40;;;13.40;99.90;;;;;;4992793;28;20691;-61
2023/05/17 07:30:04;;;;;;;0.60;0.50;;;13.50;99.90;;;;;;4992583;28;20248;-61
2023/05/17 07:32:32;;;;;;;0.70;0.50;;;13.40;99.90;;;;;;4992499;28;20198;-61
2023/05/17 07:35:01;;;;;;;0.73;0.55;;;13.40;99.90;;;;;;4992720;28;20750;-61
2023/05/17 07:37:28;;;;;;;0.60;0.50;;;13.30;99.90;;;;;;4992584;28;20743;-61
2023/05/17 07:39:56;;;;;;;1.23;0.60;;;13.30;99.90;;;;;;4992514;28;20743;-61
2023/05/17 07:42:24;;;;;;;0.82;0.65;;;13.40;99.90;;;;;;4992449;28;20629;-61
2023/05/17 07:44:54;;;;;;;1.10;0.85;;;13.40;99.90;;;;;;4992282;28;20217;-61
2023/05/17 07:47:21;;;;;;;0.70;0.60;;;13.60;99.90;;;;;;4992194;28;20221;-62
2023/05/17 07:49:49;;;;;;;1.23;0.70;;;13.70;99.90;;;;;;4992387;28;20206;-62
2023/05/17 07:52:17;;;;;;;0.60;0.50;;;14.00;99.90;;;;;;4992103;28;20665;-62
2023/05/17 07:54:45;;;;;;;1.40;0.52;;;14.00;99.90;;;;;;4992189;28;20241;-62
2023/05/17 07:57:13;;;;;;;0.90;0.77;;;14.30;99.90;;;;;;4984098;28;20272;-62
2023/05/17 07:59:41;;;;;;;0.93;0.50;;;14.20;99.90;;;;;;4992363;28;20225;-62
2023/05/17 08:02:10;;;;;;;0.60;0.50;;;14.10;99.90;;;;;;4992044;28;20214;-61
2023/05/17 08:04:38;;;;;;;0.70;0.40;;;14.00;99.90;;;;;;4992270;28;20229;-61
2023/05/17 08:07:09;;;;;;;0.60;0.40;;;13.90;99.90;;;;;;4991654;28;20664;-61
2023/05/17 08:09:39;;;;;;;0.60;0.47;;;13.80;99.90;;;;;;4991978;28;20202;-62
2023/05/17 08:12:06;;;;;;;0.80;0.60;;;13.80;99.90;;;;;;4991690;28;20296;-62
2023/05/17 08:14:34;;;;;;;0.65;0.50;;;13.70;99.90;;;;;;4991924;28;20692;-62
2023/05/17 08:17:02;;;;;;;0.77;0.65;;;13.90;99.90;;;;;;4991684;28;20265;-62
2023/05/17 08:19:32;;;;;;;0.60;0.45;;;14.10;99.90;;;;;;4991932;28;20224;-62
2023/05/17 08:22:00;;;;;;;0.70;0.45;;;14.10;99.90;;;;;;4991265;28;20210;-62
2023/05/17 08:24:28;;;;;;;0.50;0.40;;;14.20;99.90;;;;;;4991830;28;20230;-62
2023/05/17 08:26:56;;;;;;;0.60;0.45;;;14.10;99.90;;;;;;4991592;28;20201;-62
2023/05/17 08:29:24;;;;;;;0.60;0.40;;;14.20;99.90;;;;;;4991823;28;20217;-62
2023/05/17 08:31:54;;;;;;;1.05;0.40;;;14.20;99.90;;;;;;4991434;28;20213;-62
2023/05/17 08:34:22;;;;;;;0.50;0.40;;;14.00;99.90;;;;;;4991855;28;20221;-62
2023/05/17 08:36:52;;;;;;;1.02;0.88;;;13.80;99.90;;;;;;4990962;28;20214;-62
2023/05/17 08:39:20;;;;;;;0.88;0.60;;;13.80;99.90;;;;;;4991634;28;20218;-62
2023/05/17 08:41:48;;;;;;;0.60;0.50;;;13.80;99.90;;;;;;4991522;28;20214;-62
2023/05/17 08:44:16;;;;;;;0.60;0.43;;;13.90;99.90;;;;;;4983495;28;20229;-61
2023/05/17 08:46:50;;;;;;;0.70;0.50;;;14.20;99.90;;;;;;4991283;28;20209;-62
2023/05/17 08:49:22;;;;;;;0.60;0.47;;;14.80;99.90;;;;;;4986394;28;20202;-61
2023/05/17 08:51:54;;;;;;;2.15;0.50;;;15.10;99.90;;;;;;4987952;28;20740;-62
2023/05/17 08:54:22;;;;;;;0.88;0.50;;;15.10;99.90;;;;;;4991022;28;20727;-61
2023/05/17 08:56:53;;;;;;;0.50;0.40;;;15.30;99.90;;;;;;4991087;28;20210;-61
2023/05/17 08:59:22;;;;;;;2.55;0.60;;;15.20;99.90;;;;;;4991283;28;20591;-62
2023/05/17 09:01:53;;;;;;;0.60;0.50;;;14.90;99.90;;;;;;4991157;28;20206;-61
2023/05/17 09:04:21;;;;;;;0.73;0.73;;;14.60;99.90;;;;;;4991119;28;20692;-61
2023/05/17 09:06:51;;;;;;;0.60;0.50;;;14.30;99.90;;;;;;4990748;28;20210;-61
2023/05/17 09:09:19;;;;;;;1.88;0.95;;;14.30;99.90;;;;;;4983358;28;20206;-61
2023/05/17 09:11:47;;;;;;;0.60;0.40;;;14.30;99.90;;;;;;4990908;28;20209;-62
2023/05/17 09:14:16;;;;;;;0.60;0.50;;;14.20;99.90;;;;;;4990849;28;20276;-62
2023/05/17 09:16:44;;;;;;;0.60;0.45;;;14.10;99.90;;;;;;4991002;28;20212;-62
2023/05/17 09:19:16;;;;;;;1.60;1.30;;;14.30;99.90;;;;;;4993677;28;20366;-61
2023/05/17 09:21:47;;;;;;;0.80;0.50;;;14.40;99.90;;;;;;4997518;28;20285;-64
2023/05/17 09:24:19;;;;;;;0.60;0.43;;;14.50;99.90;;;;;;4997741;28;20221;-62
2023/05/17 09:26:49;;;;;;;0.60;0.40;;;14.60;99.90;;;;;;4997647;28;20213;-61
2023/05/17 09:29:17;;;;;;;0.60;0.50;;;14.70;99.90;;;;;;4997431;28;20538;-61
2023/05/17 09:31:45;;;;;;;0.60;0.40;;;14.70;99.90;;;;;;4997522;28;20340;-63
2023/05/17 09:34:17;;;;;;;0.60;0.50;;;14.70;99.90;;;;;;4997445;28;20280;-62
2023/05/17 09:36:45;;;;;;;0.70;0.52;;;14.70;99.90;;;;;;4997296;28;20925;-61
2023/05/17 09:39:13;;;;;;;0.90;0.70;;;14.90;99.90;;;;;;4997238;28;20240;-62
2023/05/17 09:41:45;;;;;;;0.60;0.40;;;15.10;99.90;;;;;;4997603;28;20728;-62
2023/05/17 09:44:14;;;;;;;1.35;0.82;;;15.10;99.90;;;;;;4997197;28;20229;-62
2023/05/17 09:46:45;;;;;;;1.02;0.50;;;15.10;99.90;;;;;;4997439;28;20217;-63
2023/05/17 09:49:13;;;;;;;0.50;0.40;;;15.40;99.90;;;;;;4997025;28;20260;-62
2023/05/17 09:51:42;;;;;;;0.88;0.60;;;15.30;99.90;;;;;;4996932;28;20206;-61
2023/05/17 09:54:11;;;;;;;0.60;0.47;;;15.00;99.90;;;;;;4997057;28;20241;-62
2023/05/17 09:56:39;;;;;;;0.95;0.80;;;14.60;99.90;;;;;;4997172;28;20209;-62
2023/05/17 09:59:13;;;;;;;0.70;0.50;;;14.60;99.90;;;;;;4997039;28;20267;-61
2023/05/17 10:01:43;;;;;;;0.70;0.60;;;14.50;99.90;;;;;;4997218;28;20229;-62
2023/05/17 10:04:13;;;;;;;1.13;0.50;;;14.50;99.90;;;;;;4997260;28;20230;-62
2023/05/17 10:06:43;;;;;;;0.80;0.65;;;14.60;99.90;;;;;;4997056;28;20236;-62
2023/05/17 10:09:22;;;;;;;0.80;0.63;;;14.70;99.90;;;;;;4997561;28;20208;-62
2023/05/17 10:11:52;;;;;;;0.90;0.60;;;14.80;99.90;;;;;;4997112;28;20201;-62
2023/05/17 10:14:27;;;;;;;0.70;0.40;;;14.90;99.90;;;;;;4997182;28;20268;-61
2023/05/17 10:16:55;;;;;;;1.27;1.10;;;15.10;99.90;;;;;;4997176;28;20205;-62
2023/05/17 10:19:25;;;;;;;0.80;0.68;;;15.10;99.90;;;;;;4990886;28;20225;-62
2023/05/17 10:21:53;;;;;;;0.50;0.40;;;15.20;99.90;;;;;;4996623;28;20261;-62
2023/05/17 10:24:22;;;;;;;0.60;0.40;;;15.30;99.90;;;;;;4989028;28;20225;-62
2023/05/17 10:26:51;;;;;;;0.60;0.50;;;15.50;99.90;;;;;;4997073;28;20221;-62
2023/05/17 10:29:20;;;;;;;0.60;0.50;;;15.70;99.90;;;;;;4996579;28;20273;-62
2023/05/17 10:31:50;;;;;;;0.60;0.40;;;16.00;99.90;;;;;;4992648;28;20919;-62
2023/05/17 10:34:19;;;;;;;0.50;0.35;;;16.20;99.90;;;;;;4993796;28;20572;-63
2023/05/17 10:36:49;;;;;;;0.70;0.57;;;16.40;99.90;;;;;;4993541;28;20205;-62
2023/05/17 10:39:17;;;;;;;0.60;0.50;;;16.40;99.90;;;;;;4993349;28;20623;-63
2023/05/17 10:41:50;;;;;;;0.60;0.40;;;16.60;99.90;;;;;;4993664;28;20216;-62
2023/05/17 10:44:20;;;;;;;0.60;0.40;;;16.80;99.90;;;;;;4993481;28;20229;-62
2023/05/17 10:46:54;;;;;;;0.70;0.60;;;17.10;99.90;;;;;;4993764;28;20296;-62
2023/05/17 10:49:25;;;;;;;0.50;0.40;;;17.30;99.90;;;;;;4987259;28;20210;-62
2023/05/17 10:52:11;;;;;;;0.65;0.65;;;17.70;99.90;;;;;;4992740;28;20607;-62
2023/05/17 10:54:42;;;;;;;0.60;0.47;;;18.20;98.90;;;;;;4987587;28;20320;-63
2023/05/17 10:57:19;;;;;;;0.60;0.40;;;17.80;98.40;;;;;;4993548;28;20214;-62
2023/05/17 10:59:58;;;;;;;0.70;0.40;;;17.40;99.40;;;;;;4993472;28;20217;-62
2023/05/17 11:02:29;;;;;;;0.60;0.50;;;17.30;98.90;;;;;;4985538;28;20205;-62
2023/05/17 11:04:59;;;;;;;0.80;0.50;;;17.20;99.90;;;;;;4993165;28;20268;-62
2023/05/17 11:07:30;;;;;;;0.60;0.45;;;17.60;99.40;;;;;;4985550;28;20210;-62
2023/05/17 11:10:12;;;;;;;0.50;0.30;;;17.80;97.50;;;;;;4993095;28;20221;-61
2023/05/17 11:12:42;;;;;;;0.98;0.60;;;18.00;98.40;;;;;;4993067;28;20285;-62
2023/05/17 11:15:12;;;;;;;0.70;0.60;;;18.20;97.60;;;;;;4993106;28;20708;-63
2023/05/17 11:17:52;;;;;;;0.60;0.50;;;18.00;97.40;;;;;;4993002;28;20680;-62
2023/05/17 11:20:33;;;;;;;0.60;0.40;;;18.00;99.00;;;;;;4992209;28;20243;-63
2023/05/17 11:23:04;;;;;;;0.75;0.57;;;17.60;98.40;;;;;;4992781;28;20265;-63
2023/05/17 11:25:34;;;;;;;0.60;0.40;;;17.60;97.20;;;;;;4992939;28;20214;-62
2023/05/17 11:28:07;;;;;;;0.60;0.50;;;17.60;96.70;;;;;;4992701;28;20213;-62
2023/05/17 11:30:40;;;;;;;0.60;0.50;;;18.20;96.70;;;;;;4993230;28;20729;-62
2023/05/17 11:33:10;;;;;;;0.50;0.30;;;18.80;96.00;;;;;;4992581;28;20312;-63
2023/05/17 11:35:56;;;;;;;0.60;0.40;;;19.80;95.40;;;;;;4992714;28;20210;-64
2023/05/17 11:38:31;;;;;;;0.60;0.43;;;20.40;93.10;;;;;;4992490;28;20281;-63
2023/05/17 11:41:18;;;;;;;0.50;0.40;;;20.10;93.00;;;;;;4992796;28;20233;-63
2023/05/17 11:43:49;;;;;;;1.17;0.85;;;19.30;93.50;;;;;;4987967;28;20288;-63
2023/05/17 11:46:21;;;;;;;0.70;0.45;;;18.70;94.00;;;;;;4992580;28;20214;-63
2023/05/17 11:48:52;;;;;;;0.80;0.60;;;18.40;95.40;;;;;;4992540;28;20207;-63
2023/05/17 11:51:21;;;;;;;0.50;0.40;;;18.30;95.10;;;;;;4992197;28;20613;-63
2023/05/17 11:53:54;;;;;;;0.90;0.40;;;18.20;97.30;;;;;;4992011;28;20304;-63
2023/05/17 11:56:23;;;;;;;0.50;0.32;;;18.20;96.00;;;;;;4992174;28;20206;-62
2023/05/17 11:59:09;;;;;;;0.60;0.40;;;18.30;96.20;;;;;;4992286;28;20236;-63
2023/05/17 12:01:44;;;;;;;0.60;0.40;;;18.40;95.20;;;;;;4992064;28;20280;-63
2023/05/17 12:04:14;;;;;;;0.82;0.63;;;18.60;95.50;;;;;;4992039;28;20676;-63
2023/05/17 12:06:43;;;;;;;0.50;0.38;;;19.10;93.70;;;;;;4992288;28;20210;-62
2023/05/17 12:09:16;;;;;;;0.57;0.43;;;19.40;93.90;;;;;;4991955;28;20584;-63
2023/05/17 12:11:45;;;;;;;0.57;0.40;;;19.50;92.80;;;;;;4991619;28;20570;-63
2023/05/17 12:14:15;;;;;;;0.60;0.50;;;19.50;93.80;;;;;;4991798;28;20233;-63
2023/05/17 12:16:44;;;;;;;0.50;0.40;;;19.40;92.70;;;;;;4992326;28;20214;-63
2023/05/17 12:19:21;;;;;;;0.52;0.40;;;19.20;93.70;;;;;;4991670;28;20253;-63
2023/05/17 12:21:49;;;;;;;0.60;0.40;;;18.60;92.50;;;;;;4991427;28;20330;-62
2023/05/17 12:24:17;;;;;;;1.00;0.77;;;18.80;93.50;;;;;;4991604;28;20226;-62
2023/05/17 12:26:46;;;;;;;0.50;0.30;;;19.40;92.80;;;;;;4991781;28;20216;-63
2023/05/17 12:29:21;;;;;;;0.63;0.57;;;19.80;92.60;;;;;;4991567;28;20210;-62
2023/05/17 12:31:52;;;;;;;0.60;0.52;;;19.60;91.50;;;;;;4991815;28;20677;-63
2023/05/17 12:34:22;;;;;;;0.60;0.40;;;19.40;92.30;;;;;;4983552;28;20716;-63
2023/05/17 12:36:51;;;;;;;0.60;0.40;;;19.40;91.80;;;;;;4991633;28;20289;-63
2023/05/17 12:39:22;;;;;;;0.50;0.40;;;19.30;92.40;;;;;;4991165;28;20221;-63
2023/05/17 12:41:51;;;;;;;0.60;0.40;;;19.20;93.10;;;;;;4991539;28;20317;-63
2023/05/17 12:44:20;;;;;;;0.50;0.30;;;19.20;92.40;;;;;;4991363;28;20775;-63
2023/05/17 12:46:52;;;;;;;0.60;0.40;;;19.60;92.70;;;;;;4991707;28;20633;-64
2023/05/17 12:49:22;;;;;;;0.52;0.40;;;20.00;91.00;;;;;;4991065;28;20628;-63
2023/05/17 12:51:50;;;;;;;2.30;0.43;;;20.70;90.90;;;;;;4990019;28;20217;-63
2023/05/17 12:54:26;;;;;;;0.60;0.47;;;21.60;88.10;;;;;;5043608;23;20239;-71
2023/05/17 12:56:55;;;;;;;0.60;0.38;;;22.30;87.60;;;;;;4980057;28;20646;-70
2023/05/17 12:59:24;;;;;;;0.60;0.40;;;22.00;86.00;;;;;;4980095;28;20258;-70
2023/05/17 13:01:55;;;;;;;0.60;0.43;;;21.80;88.60;;;;;;4977942;28;20317;-70